sensor_id;sensor_type;location;lat;lon;timestamp;P1;durP1;ratioP1;P2;durP2;ratioP2
13847;SDS011;6994;49.752;6.094;2023-11-19T00:01:49;0.20;;;0.20;;
13847;SDS011;6994;49.752;6.094;2023-11-19T00:04:16;1.00;;;0.20;;
13847;SDS011;6994;49.752;6.094;2023-11-19T00:06:43;0.50;;;0.13;;
13847;SDS011;6994;49.752;6.094;2023-11-19T00:09:11;0.85;;;0.30;;
13847;SDS011;6994;49.752;6.094;2023-11-19T00:11:38;0.13;;;0.10;;
13847;SDS011;6994;49.752;6.094;2023-11-19T00:14:05;0.20;;;0.20;;
13847;SDS011;6994;49.752;6.094;2023-11-19T00:16:32;0.62;;;0.30;;
13847;SDS011;6994;49.752;6.094;2023-11-19T00:18:59;0.20;;;0.20;;
13847;SDS011;6994;49.752;6.094;2023-11-19T00:21:27;0.10;;;0.10;;
13847;SDS011;6994;49.752;6.094;2023-11-19T00:23:54;0.85;;;0.40;;
13847;SDS011;6994;49.752;6.094;2023-11-19T00:26:21;1.67;;;0.37;;
13847;SDS011;6994;49.752;6.094;2023-11-19T00:28:48;0.20;;;0.10;;
13847;SDS011;6994;49.752;6.094;2023-11-19T00:31:15;0.10;;;0.10;;
13847;SDS011;6994;49.752;6.094;2023-11-19T00:33:43;0.10;;;0.10;;
13847;SDS011;6994;49.752;6.094;2023-11-19T00:36:10;0.20;;;0.20;;
13847;SDS011;6994;49.752;6.094;2023-11-19T00:38:37;0.40;;;0.40;;
13847;SDS011;6994;49.752;6.094;2023-11-19T00:41:04;0.30;;;0.20;;
13847;SDS011;6994;49.752;6.094;2023-11-19T00:43:31;0.25;;;0.25;;
13847;SDS011;6994;49.752;6.094;2023-11-19T00:45:59;0.10;;;0.10;;
13847;SDS011;6994;49.752;6.094;2023-11-19T00:48:26;0.10;;;0.10;;
13847;SDS011;6994;49.752;6.094;2023-11-19T00:50:53;0.80;;;0.20;;
13847;SDS011;6994;49.752;6.094;2023-11-19T00:53:20;0.75;;;0.37;;
13847;SDS011;6994;49.752;6.094;2023-11-19T00:55:48;0.50;;;0.30;;
13847;SDS011;6994;49.752;6.094;2023-11-19T00:58:15;0.28;;;0.28;;
13847;SDS011;6994;49.752;6.094;2023-11-19T01:00:42;0.20;;;0.20;;
13847;SDS011;6994;49.752;6.094;2023-11-19T01:03:10;0.30;;;0.30;;
13847;SDS011;6994;49.752;6.094;2023-11-19T01:05:38;0.40;;;0.40;;
13847;SDS011;6994;49.752;6.094;2023-11-19T01:08:05;3.10;;;0.37;;
13847;SDS011;6994;49.752;6.094;2023-11-19T01:10:32;0.60;;;0.30;;
13847;SDS011;6994;49.752;6.094;2023-11-19T01:13:00;0.20;;;0.20;;
13847;SDS011;6994;49.752;6.094;2023-11-19T01:15:27;1.27;;;0.30;;
13847;SDS011;6994;49.752;6.094;2023-11-19T01:17:55;0.30;;;0.30;;
13847;SDS011;6994;49.752;6.094;2023-11-19T01:20:22;1.00;;;0.43;;
13847;SDS011;6994;49.752;6.094;2023-11-19T01:22:49;0.50;;;0.40;;
13847;SDS011;6994;49.752;6.094;2023-11-19T01:25:16;0.50;;;0.50;;
13847;SDS011;6994;49.752;6.094;2023-11-19T01:27:43;0.55;;;0.45;;
13847;SDS011;6994;49.752;6.094;2023-11-19T01:30:11;0.40;;;0.40;;
13847;SDS011;6994;49.752;6.094;2023-11-19T01:32:41;1.15;;;0.40;;
13847;SDS011;6994;49.752;6.094;2023-11-19T01:35:08;1.05;;;0.50;;
13847;SDS011;6994;49.752;6.094;2023-11-19T01:37:35;0.40;;;0.30;;
13847;SDS011;6994;49.752;6.094;2023-11-19T01:40:02;0.98;;;0.40;;
13847;SDS011;6994;49.752;6.094;2023-11-19T01:42:29;0.57;;;0.57;;
13847;SDS011;6994;49.752;6.094;2023-11-19T01:45:00;0.60;;;0.55;;
13847;SDS011;6994;49.752;6.094;2023-11-19T01:47:28;0.73;;;0.60;;
13847;SDS011;6994;49.752;6.094;2023-11-19T01:49:55;1.00;;;0.62;;
13847;SDS011;6994;49.752;6.094;2023-11-19T01:52:22;1.17;;;1.00;;
13847;SDS011;6994;49.752;6.094;2023-11-19T01:54:49;1.10;;;1.00;;
13847;SDS011;6994;49.752;6.094;2023-11-19T01:57:16;1.15;;;1.00;;
13847;SDS011;6994;49.752;6.094;2023-11-19T01:59:44;1.85;;;1.52;;
13847;SDS011;6994;49.752;6.094;2023-11-19T02:02:11;1.83;;;1.30;;
13847;SDS011;6994;49.752;6.094;2023-11-19T02:04:38;1.20;;;1.10;;
13847;SDS011;6994;49.752;6.094;2023-11-19T02:07:05;3.05;;;1.50;;
13847;SDS011;6994;49.752;6.094;2023-11-19T02:09:32;1.58;;;1.30;;
13847;SDS011;6994;49.752;6.094;2023-11-19T02:12:00;1.20;;;1.10;;
13847;SDS011;6994;49.752;6.094;2023-11-19T02:14:28;1.33;;;1.20;;
13847;SDS011;6994;49.752;6.094;2023-11-19T02:16:56;2.55;;;1.05;;
13847;SDS011;6994;49.752;6.094;2023-11-19T02:19:23;1.67;;;1.00;;
13847;SDS011;6994;49.752;6.094;2023-11-19T02:21:51;1.25;;;1.15;;
13847;SDS011;6994;49.752;6.094;2023-11-19T02:24:18;2.05;;;1.15;;
13847;SDS011;6994;49.752;6.094;2023-11-19T02:26:47;1.92;;;1.23;;
13847;SDS011;6994;49.752;6.094;2023-11-19T02:29:21;1.87;;;1.00;;
13847;SDS011;6994;49.752;6.094;2023-11-19T02:31:48;2.80;;;1.15;;
13847;SDS011;6994;49.752;6.094;2023-11-19T02:34:16;2.00;;;1.10;;
13847;SDS011;6994;49.752;6.094;2023-11-19T02:36:43;1.45;;;1.05;;
13847;SDS011;6994;49.752;6.094;2023-11-19T02:39:10;1.58;;;1.00;;
13847;SDS011;6994;49.752;6.094;2023-11-19T02:41:37;1.33;;;0.98;;
13847;SDS011;6994;49.752;6.094;2023-11-19T02:44:05;1.75;;;0.68;;
13847;SDS011;6994;49.752;6.094;2023-11-19T02:46:34;0.82;;;0.82;;
13847;SDS011;6994;49.752;6.094;2023-11-19T02:49:01;0.90;;;0.85;;
13847;SDS011;6994;49.752;6.094;2023-11-19T02:51:29;1.62;;;1.10;;
13847;SDS011;6994;49.752;6.094;2023-11-19T02:53:56;0.88;;;0.88;;
13847;SDS011;6994;49.752;6.094;2023-11-19T02:56:23;1.33;;;1.00;;
13847;SDS011;6994;49.752;6.094;2023-11-19T02:58:53;2.00;;;0.95;;
13847;SDS011;6994;49.752;6.094;2023-11-19T03:01:26;2.67;;;1.25;;
13847;SDS011;6994;49.752;6.094;2023-11-19T03:03:51;1.98;;;1.10;;
13847;SDS011;6994;49.752;6.094;2023-11-19T03:06:17;1.58;;;0.93;;
13847;SDS011;6994;49.752;6.094;2023-11-19T03:08:45;1.65;;;1.10;;
13847;SDS011;6994;49.752;6.094;2023-11-19T03:11:12;0.80;;;0.80;;
13847;SDS011;6994;49.752;6.094;2023-11-19T03:13:39;1.42;;;0.80;;
13847;SDS011;6994;49.752;6.094;2023-11-19T03:16:06;0.85;;;0.85;;
13847;SDS011;6994;49.752;6.094;2023-11-19T03:18:33;0.75;;;0.70;;
13847;SDS011;6994;49.752;6.094;2023-11-19T03:21:01;2.87;;;1.98;;
13847;SDS011;6994;49.752;6.094;2023-11-19T03:23:28;0.73;;;0.70;;
13847;SDS011;6994;49.752;6.094;2023-11-19T03:25:55;1.35;;;0.80;;
13847;SDS011;6994;49.752;6.094;2023-11-19T03:28:22;2.60;;;1.15;;
13847;SDS011;6994;49.752;6.094;2023-11-19T03:30:49;1.67;;;0.93;;
13847;SDS011;6994;49.752;6.094;2023-11-19T03:33:17;2.28;;;0.98;;
13847;SDS011;6994;49.752;6.094;2023-11-19T03:35:44;1.58;;;0.95;;
13847;SDS011;6994;49.752;6.094;2023-11-19T03:38:11;1.80;;;1.20;;
13847;SDS011;6994;49.752;6.094;2023-11-19T03:40:38;3.45;;;1.10;;
13847;SDS011;6994;49.752;6.094;2023-11-19T03:43:06;2.90;;;2.22;;
13847;SDS011;6994;49.752;6.094;2023-11-19T03:45:33;3.37;;;1.55;;
13847;SDS011;6994;49.752;6.094;2023-11-19T03:48:00;2.83;;;1.75;;
13847;SDS011;6994;49.752;6.094;2023-11-19T03:50:28;3.85;;;1.40;;
13847;SDS011;6994;49.752;6.094;2023-11-19T03:52:55;4.03;;;1.62;;
13847;SDS011;6994;49.752;6.094;2023-11-19T03:55:22;2.37;;;1.62;;
13847;SDS011;6994;49.752;6.094;2023-11-19T03:57:50;3.22;;;1.67;;
13847;SDS011;6994;49.752;6.094;2023-11-19T04:00:17;1.90;;;1.37;;
13847;SDS011;6994;49.752;6.094;2023-11-19T04:02:45;2.83;;;1.85;;
13847;SDS011;6994;49.752;6.094;2023-11-19T04:05:12;5.03;;;1.98;;
13847;SDS011;6994;49.752;6.094;2023-11-19T04:07:39;7.03;;;2.72;;
13847;SDS011;6994;49.752;6.094;2023-11-19T04:10:06;5.90;;;2.80;;
13847;SDS011;6994;49.752;6.094;2023-11-19T04:12:34;5.55;;;2.83;;
13847;SDS011;6994;49.752;6.094;2023-11-19T04:15:01;6.40;;;2.70;;
13847;SDS011;6994;49.752;6.094;2023-11-19T04:17:28;5.30;;;2.60;;
13847;SDS011;6994;49.752;6.094;2023-11-19T04:19:55;6.78;;;2.03;;
13847;SDS011;6994;49.752;6.094;2023-11-19T04:22:22;2.97;;;1.37;;
13847;SDS011;6994;49.752;6.094;2023-11-19T04:24:50;4.32;;;1.70;;
13847;SDS011;6994;49.752;6.094;2023-11-19T04:27:17;1.75;;;1.30;;
13847;SDS011;6994;49.752;6.094;2023-11-19T04:29:44;3.03;;;1.30;;
13847;SDS011;6994;49.752;6.094;2023-11-19T04:32:12;1.67;;;1.12;;
13847;SDS011;6994;49.752;6.094;2023-11-19T04:34:39;2.60;;;1.02;;
13847;SDS011;6994;49.752;6.094;2023-11-19T04:37:06;1.35;;;0.88;;
13847;SDS011;6994;49.752;6.094;2023-11-19T04:39:34;3.17;;;1.00;;
13847;SDS011;6994;49.752;6.094;2023-11-19T04:42:01;2.90;;;1.25;;
13847;SDS011;6994;49.752;6.094;2023-11-19T04:44:28;2.45;;;1.05;;
13847;SDS011;6994;49.752;6.094;2023-11-19T04:46:55;2.70;;;0.93;;
13847;SDS011;6994;49.752;6.094;2023-11-19T04:49:22;1.85;;;0.70;;
13847;SDS011;6994;49.752;6.094;2023-11-19T04:51:50;1.08;;;0.93;;
13847;SDS011;6994;49.752;6.094;2023-11-19T04:54:17;2.40;;;1.67;;
13847;SDS011;6994;49.752;6.094;2023-11-19T04:56:47;2.35;;;0.90;;
13847;SDS011;6994;49.752;6.094;2023-11-19T04:59:14;1.33;;;0.70;;
13847;SDS011;6994;49.752;6.094;2023-11-19T05:01:41;3.12;;;1.12;;
13847;SDS011;6994;49.752;6.094;2023-11-19T05:04:08;3.25;;;1.00;;
13847;SDS011;6994;49.752;6.094;2023-11-19T05:06:35;2.40;;;1.25;;
13847;SDS011;6994;49.752;6.094;2023-11-19T05:09:03;2.50;;;1.00;;
13847;SDS011;6994;49.752;6.094;2023-11-19T05:11:30;3.12;;;1.40;;
13847;SDS011;6994;49.752;6.094;2023-11-19T05:13:57;6.57;;;1.15;;
13847;SDS011;6994;49.752;6.094;2023-11-19T05:16:24;1.48;;;0.90;;
13847;SDS011;6994;49.752;6.094;2023-11-19T05:18:51;3.05;;;1.87;;
13847;SDS011;6994;49.752;6.094;2023-11-19T05:21:19;0.73;;;0.70;;
13847;SDS011;6994;49.752;6.094;2023-11-19T05:23:47;2.95;;;1.17;;
13847;SDS011;6994;49.752;6.094;2023-11-19T05:26:17;7.43;;;1.25;;
13847;SDS011;6994;49.752;6.094;2023-11-19T05:28:44;3.60;;;1.17;;
13847;SDS011;6994;49.752;6.094;2023-11-19T05:31:11;5.37;;;1.27;;
13847;SDS011;6994;49.752;6.094;2023-11-19T05:33:38;5.00;;;1.33;;
13847;SDS011;6994;49.752;6.094;2023-11-19T05:36:06;4.85;;;1.35;;
13847;SDS011;6994;49.752;6.094;2023-11-19T05:38:33;1.80;;;1.50;;
13847;SDS011;6994;49.752;6.094;2023-11-19T05:41:01;2.42;;;1.10;;
13847;SDS011;6994;49.752;6.094;2023-11-19T05:43:28;7.15;;;1.40;;
13847;SDS011;6994;49.752;6.094;2023-11-19T05:45:55;6.47;;;1.60;;
13847;SDS011;6994;49.752;6.094;2023-11-19T05:48:22;4.25;;;1.60;;
13847;SDS011;6994;49.752;6.094;2023-11-19T05:50:50;2.78;;;1.42;;
13847;SDS011;6994;49.752;6.094;2023-11-19T05:53:17;6.20;;;1.45;;
13847;SDS011;6994;49.752;6.094;2023-11-19T05:55:44;4.68;;;1.10;;
13847;SDS011;6994;49.752;6.094;2023-11-19T05:58:11;6.32;;;1.62;;
13847;SDS011;6994;49.752;6.094;2023-11-19T06:00:41;3.50;;;1.20;;
13847;SDS011;6994;49.752;6.094;2023-11-19T06:03:08;5.60;;;1.50;;
13847;SDS011;6994;49.752;6.094;2023-11-19T06:05:35;3.12;;;1.23;;
13847;SDS011;6994;49.752;6.094;2023-11-19T06:08:03;5.78;;;1.50;;
13847;SDS011;6994;49.752;6.094;2023-11-19T06:10:30;4.95;;;1.60;;
13847;SDS011;6994;49.752;6.094;2023-11-19T06:12:58;5.40;;;1.85;;
13847;SDS011;6994;49.752;6.094;2023-11-19T06:15:24;4.28;;;1.58;;
13847;SDS011;6994;49.752;6.094;2023-11-19T06:17:51;5.93;;;1.30;;
13847;SDS011;6994;49.752;6.094;2023-11-19T06:20:19;5.30;;;1.62;;
13847;SDS011;6994;49.752;6.094;2023-11-19T06:22:47;2.65;;;1.10;;
13847;SDS011;6994;49.752;6.094;2023-11-19T06:25:14;6.43;;;1.35;;
13847;SDS011;6994;49.752;6.094;2023-11-19T06:27:41;3.17;;;1.33;;
13847;SDS011;6994;49.752;6.094;2023-11-19T06:30:08;3.60;;;1.12;;
13847;SDS011;6994;49.752;6.094;2023-11-19T06:32:35;5.95;;;2.05;;
13847;SDS011;6994;49.752;6.094;2023-11-19T06:35:03;9.07;;;1.50;;
13847;SDS011;6994;49.752;6.094;2023-11-19T06:37:30;2.58;;;1.33;;
13847;SDS011;6994;49.752;6.094;2023-11-19T06:39:57;6.95;;;1.25;;
13847;SDS011;6994;49.752;6.094;2023-11-19T06:42:24;5.25;;;1.77;;
13847;SDS011;6994;49.752;6.094;2023-11-19T06:44:51;5.18;;;1.37;;
13847;SDS011;6994;49.752;6.094;2023-11-19T06:47:19;3.85;;;1.23;;
13847;SDS011;6994;49.752;6.094;2023-11-19T06:49:46;3.53;;;1.27;;
13847;SDS011;6994;49.752;6.094;2023-11-19T06:52:13;4.12;;;1.52;;
13847;SDS011;6994;49.752;6.094;2023-11-19T06:54:40;3.47;;;1.55;;
13847;SDS011;6994;49.752;6.094;2023-11-19T06:57:07;4.05;;;1.05;;
13847;SDS011;6994;49.752;6.094;2023-11-19T06:59:35;8.40;;;1.20;;
13847;SDS011;6994;49.752;6.094;2023-11-19T07:02:02;3.85;;;1.15;;
13847;SDS011;6994;49.752;6.094;2023-11-19T07:04:29;5.18;;;1.17;;
13847;SDS011;6994;49.752;6.094;2023-11-19T07:06:56;5.32;;;1.12;;
13847;SDS011;6994;49.752;6.094;2023-11-19T07:09:23;6.30;;;1.40;;
13847;SDS011;6994;49.752;6.094;2023-11-19T07:11:51;5.47;;;1.37;;
13847;SDS011;6994;49.752;6.094;2023-11-19T07:14:21;3.97;;;1.02;;
13847;SDS011;6994;49.752;6.094;2023-11-19T07:16:48;7.60;;;1.50;;
13847;SDS011;6994;49.752;6.094;2023-11-19T07:19:15;4.72;;;1.48;;
13847;SDS011;6994;49.752;6.094;2023-11-19T07:21:43;6.72;;;1.00;;
13847;SDS011;6994;49.752;6.094;2023-11-19T07:24:12;8.35;;;1.58;;
13847;SDS011;6994;49.752;6.094;2023-11-19T07:26:43;7.35;;;1.12;;
13847;SDS011;6994;49.752;6.094;2023-11-19T07:29:10;3.60;;;1.23;;
13847;SDS011;6994;49.752;6.094;2023-11-19T07:31:37;4.28;;;1.50;;
13847;SDS011;6994;49.752;6.094;2023-11-19T07:34:04;6.93;;;1.87;;
13847;SDS011;6994;49.752;6.094;2023-11-19T07:36:31;7.68;;;1.58;;
13847;SDS011;6994;49.752;6.094;2023-11-19T07:38:58;3.83;;;1.17;;
13847;SDS011;6994;49.752;6.094;2023-11-19T07:41:26;3.60;;;0.90;;
13847;SDS011;6994;49.752;6.094;2023-11-19T07:43:53;2.97;;;1.10;;
13847;SDS011;6994;49.752;6.094;2023-11-19T07:46:20;4.15;;;1.12;;
13847;SDS011;6994;49.752;6.094;2023-11-19T07:48:47;6.43;;;1.40;;
13847;SDS011;6994;49.752;6.094;2023-11-19T07:51:15;5.20;;;1.52;;
13847;SDS011;6994;49.752;6.094;2023-11-19T07:53:42;4.53;;;1.27;;
13847;SDS011;6994;49.752;6.094;2023-11-19T07:56:09;10.43;;;1.12;;
13847;SDS011;6994;49.752;6.094;2023-11-19T07:58:36;5.87;;;1.25;;
13847;SDS011;6994;49.752;6.094;2023-11-19T08:01:04;4.15;;;1.30;;
13847;SDS011;6994;49.752;6.094;2023-11-19T08:03:31;4.93;;;1.65;;
13847;SDS011;6994;49.752;6.094;2023-11-19T08:05:58;6.40;;;1.83;;
13847;SDS011;6994;49.752;6.094;2023-11-19T08:08:25;6.40;;;1.60;;
13847;SDS011;6994;49.752;6.094;2023-11-19T08:10:52;9.27;;;1.62;;
13847;SDS011;6994;49.752;6.094;2023-11-19T08:13:19;4.30;;;1.67;;
13847;SDS011;6994;49.752;6.094;2023-11-19T08:15:47;4.22;;;1.40;;
13847;SDS011;6994;49.752;6.094;2023-11-19T08:18:14;6.85;;;1.70;;
13847;SDS011;6994;49.752;6.094;2023-11-19T08:20:41;7.07;;;1.35;;
13847;SDS011;6994;49.752;6.094;2023-11-19T08:23:09;6.50;;;1.40;;
13847;SDS011;6994;49.752;6.094;2023-11-19T08:25:36;6.82;;;1.27;;
13847;SDS011;6994;49.752;6.094;2023-11-19T08:28:03;8.27;;;1.33;;
13847;SDS011;6994;49.752;6.094;2023-11-19T08:30:31;6.32;;;1.80;;
13847;SDS011;6994;49.752;6.094;2023-11-19T08:32:58;5.95;;;1.58;;
13847;SDS011;6994;49.752;6.094;2023-11-19T08:35:25;6.70;;;1.70;;
13847;SDS011;6994;49.752;6.094;2023-11-19T08:37:52;5.85;;;1.50;;
13847;SDS011;6994;49.752;6.094;2023-11-19T08:40:19;9.98;;;1.62;;
13847;SDS011;6994;49.752;6.094;2023-11-19T08:42:47;7.25;;;1.30;;
13847;SDS011;6994;49.752;6.094;2023-11-19T08:45:14;4.87;;;1.40;;
13847;SDS011;6994;49.752;6.094;2023-11-19T08:47:41;5.03;;;1.92;;
13847;SDS011;6994;49.752;6.094;2023-11-19T08:50:08;5.85;;;1.23;;
13847;SDS011;6994;49.752;6.094;2023-11-19T08:52:35;5.72;;;1.20;;
13847;SDS011;6994;49.752;6.094;2023-11-19T08:55:03;4.15;;;1.40;;
13847;SDS011;6994;49.752;6.094;2023-11-19T08:57:30;8.82;;;1.70;;
13847;SDS011;6994;49.752;6.094;2023-11-19T08:59:57;4.53;;;1.33;;
13847;SDS011;6994;49.752;6.094;2023-11-19T09:02:25;6.95;;;2.35;;
13847;SDS011;6994;49.752;6.094;2023-11-19T09:04:51;5.03;;;1.42;;
13847;SDS011;6994;49.752;6.094;2023-11-19T09:07:19;8.13;;;2.03;;
13847;SDS011;6994;49.752;6.094;2023-11-19T09:09:46;5.30;;;1.30;;
13847;SDS011;6994;49.752;6.094;2023-11-19T09:12:13;5.43;;;1.33;;
13847;SDS011;6994;49.752;6.094;2023-11-19T09:14:40;7.35;;;0.95;;
13847;SDS011;6994;49.752;6.094;2023-11-19T09:17:07;9.00;;;1.60;;
13847;SDS011;6994;49.752;6.094;2023-11-19T09:19:35;8.32;;;1.98;;
13847;SDS011;6994;49.752;6.094;2023-11-19T09:22:02;8.57;;;1.50;;
13847;SDS011;6994;49.752;6.094;2023-11-19T09:24:29;10.13;;;1.90;;
13847;SDS011;6994;49.752;6.094;2023-11-19T09:26:56;6.80;;;1.73;;
13847;SDS011;6994;49.752;6.094;2023-11-19T09:29:23;7.93;;;2.03;;
13847;SDS011;6994;49.752;6.094;2023-11-19T09:31:51;4.05;;;1.25;;
13847;SDS011;6994;49.752;6.094;2023-11-19T09:34:18;9.00;;;2.30;;
13847;SDS011;6994;49.752;6.094;2023-11-19T09:36:45;7.40;;;2.10;;
13847;SDS011;6994;49.752;6.094;2023-11-19T09:39:12;10.75;;;2.70;;
13847;SDS011;6994;49.752;6.094;2023-11-19T09:41:40;8.05;;;1.77;;
13847;SDS011;6994;49.752;6.094;2023-11-19T09:44:07;8.73;;;2.20;;
13847;SDS011;6994;49.752;6.094;2023-11-19T09:46:34;8.70;;;1.85;;
13847;SDS011;6994;49.752;6.094;2023-11-19T09:49:01;13.07;;;2.30;;
13847;SDS011;6994;49.752;6.094;2023-11-19T09:51:29;7.53;;;1.92;;
13847;SDS011;6994;49.752;6.094;2023-11-19T09:53:56;6.78;;;1.70;;
13847;SDS011;6994;49.752;6.094;2023-11-19T09:56:24;11.43;;;2.47;;
13847;SDS011;6994;49.752;6.094;2023-11-19T09:58:51;5.87;;;1.92;;
13847;SDS011;6994;49.752;6.094;2023-11-19T10:01:18;9.07;;;2.30;;
13847;SDS011;6994;49.752;6.094;2023-11-19T10:03:46;9.25;;;2.10;;
13847;SDS011;6994;49.752;6.094;2023-11-19T10:06:12;10.65;;;2.17;;
13847;SDS011;6994;49.752;6.094;2023-11-19T10:08:40;10.10;;;2.12;;
13847;SDS011;6994;49.752;6.094;2023-11-19T10:11:07;9.32;;;1.70;;
13847;SDS011;6994;49.752;6.094;2023-11-19T10:13:34;9.52;;;2.35;;
13847;SDS011;6994;49.752;6.094;2023-11-19T10:16:03;4.95;;;1.37;;
13847;SDS011;6994;49.752;6.094;2023-11-19T10:18:29;8.15;;;2.00;;
13847;SDS011;6994;49.752;6.094;2023-11-19T10:20:56;7.95;;;1.87;;
13847;SDS011;6994;49.752;6.094;2023-11-19T10:23:24;8.52;;;1.55;;
13847;SDS011;6994;49.752;6.094;2023-11-19T10:25:52;6.97;;;1.85;;
13847;SDS011;6994;49.752;6.094;2023-11-19T10:28:18;8.20;;;1.98;;
13847;SDS011;6994;49.752;6.094;2023-11-19T10:30:45;9.30;;;1.83;;
13847;SDS011;6994;49.752;6.094;2023-11-19T10:33:13;10.23;;;2.30;;
13847;SDS011;6994;49.752;6.094;2023-11-19T10:35:52;11.45;;;2.87;;
13847;SDS011;6994;49.752;6.094;2023-11-19T10:38:21;12.63;;;2.70;;
13847;SDS011;6994;49.752;6.094;2023-11-19T10:40:48;8.30;;;2.35;;
13847;SDS011;6994;49.752;6.094;2023-11-19T10:43:15;7.35;;;1.58;;
13847;SDS011;6994;49.752;6.094;2023-11-19T10:45:42;5.57;;;1.60;;
13847;SDS011;6994;49.752;6.094;2023-11-19T10:48:10;9.18;;;2.03;;
13847;SDS011;6994;49.752;6.094;2023-11-19T10:50:37;7.47;;;1.62;;
13847;SDS011;6994;49.752;6.094;2023-11-19T10:53:04;3.15;;;1.60;;
13847;SDS011;6994;49.752;6.094;2023-11-19T10:55:32;7.10;;;1.92;;
13847;SDS011;6994;49.752;6.094;2023-11-19T10:57:59;6.25;;;1.65;;
13847;SDS011;6994;49.752;6.094;2023-11-19T11:00:26;3.30;;;1.23;;
13847;SDS011;6994;49.752;6.094;2023-11-19T11:02:54;3.08;;;1.17;;
13847;SDS011;6994;49.752;6.094;2023-11-19T11:05:20;6.65;;;2.85;;
13847;SDS011;6994;49.752;6.094;2023-11-19T11:07:47;7.35;;;1.35;;
13847;SDS011;6994;49.752;6.094;2023-11-19T11:10:16;7.12;;;1.95;;
13847;SDS011;6994;49.752;6.094;2023-11-19T11:12:42;9.63;;;1.52;;
13847;SDS011;6994;49.752;6.094;2023-11-19T11:15:11;4.68;;;1.75;;
13847;SDS011;6994;49.752;6.094;2023-11-19T11:17:36;5.10;;;1.70;;
13847;SDS011;6994;49.752;6.094;2023-11-19T11:20:03;4.75;;;1.73;;
13847;SDS011;6994;49.752;6.094;2023-11-19T11:22:33;5.05;;;1.87;;
13847;SDS011;6994;49.752;6.094;2023-11-19T11:27:43;7.32;;;1.62;;
13847;SDS011;6994;49.752;6.094;2023-11-19T11:30:29;6.75;;;2.15;;
13847;SDS011;6994;49.752;6.094;2023-11-19T11:33:06;8.50;;;1.65;;
13847;SDS011;6994;49.752;6.094;2023-11-19T11:35:37;11.32;;;2.12;;
13847;SDS011;6994;49.752;6.094;2023-11-19T11:38:08;11.48;;;2.33;;
13847;SDS011;6994;49.752;6.094;2023-11-19T11:40:35;8.20;;;1.80;;
13847;SDS011;6994;49.752;6.094;2023-11-19T11:43:02;3.90;;;1.55;;
13847;SDS011;6994;49.752;6.094;2023-11-19T11:45:36;6.93;;;1.90;;
13847;SDS011;6994;49.752;6.094;2023-11-19T11:48:08;6.75;;;1.73;;
13847;SDS011;6994;49.752;6.094;2023-11-19T11:50:35;7.35;;;1.52;;
13847;SDS011;6994;49.752;6.094;2023-11-19T11:55:36;12.98;;;3.90;;
13847;SDS011;6994;49.752;6.094;2023-11-19T11:58:03;7.05;;;1.70;;
13847;SDS011;6994;49.752;6.094;2023-11-19T12:00:30;13.98;;;3.10;;
13847;SDS011;6994;49.752;6.094;2023-11-19T12:03:00;7.78;;;2.17;;
13847;SDS011;6994;49.752;6.094;2023-11-19T12:05:28;5.80;;;1.40;;
13847;SDS011;6994;49.752;6.094;2023-11-19T12:07:59;7.37;;;2.00;;
13847;SDS011;6994;49.752;6.094;2023-11-19T12:10:22;7.53;;;2.12;;
13847;SDS011;6994;49.752;6.094;2023-11-19T12:12:49;7.15;;;1.80;;
13847;SDS011;6994;49.752;6.094;2023-11-19T12:15:16;7.68;;;2.40;;
13847;SDS011;6994;49.752;6.094;2023-11-19T12:17:46;8.02;;;2.58;;
13847;SDS011;6994;49.752;6.094;2023-11-19T12:20:13;9.13;;;1.95;;
13847;SDS011;6994;49.752;6.094;2023-11-19T12:22:41;6.72;;;2.05;;
13847;SDS011;6994;49.752;6.094;2023-11-19T12:25:08;5.10;;;1.70;;
13847;SDS011;6994;49.752;6.094;2023-11-19T12:27:41;7.35;;;1.73;;
13847;SDS011;6994;49.752;6.094;2023-11-19T12:30:08;8.57;;;2.08;;
13847;SDS011;6994;49.752;6.094;2023-11-19T12:32:45;9.35;;;2.55;;
13847;SDS011;6994;49.752;6.094;2023-11-19T12:35:12;6.85;;;2.00;;
13847;SDS011;6994;49.752;6.094;2023-11-19T12:37:42;12.88;;;1.95;;
13847;SDS011;6994;49.752;6.094;2023-11-19T12:40:19;8.77;;;1.95;;
13847;SDS011;6994;49.752;6.094;2023-11-19T12:42:49;6.12;;;1.52;;
13847;SDS011;6994;49.752;6.094;2023-11-19T12:45:17;8.05;;;1.42;;
13847;SDS011;6994;49.752;6.094;2023-11-19T12:47:45;6.25;;;1.73;;
13847;SDS011;6994;49.752;6.094;2023-11-19T12:50:16;6.37;;;1.58;;
13847;SDS011;6994;49.752;6.094;2023-11-19T12:52:42;5.07;;;1.67;;
13847;SDS011;6994;49.752;6.094;2023-11-19T12:55:28;6.25;;;1.55;;
13847;SDS011;6994;49.752;6.094;2023-11-19T12:57:55;8.35;;;2.87;;
13847;SDS011;6994;49.752;6.094;2023-11-19T13:00:22;7.93;;;2.08;;
13847;SDS011;6994;49.752;6.094;2023-11-19T13:02:50;8.93;;;2.20;;
13847;SDS011;6994;49.752;6.094;2023-11-19T13:05:32;6.28;;;2.20;;
13847;SDS011;6994;49.752;6.094;2023-11-19T13:08:02;8.35;;;1.50;;
13847;SDS011;6994;49.752;6.094;2023-11-19T13:10:29;7.57;;;1.60;;
13847;SDS011;6994;49.752;6.094;2023-11-19T13:13:02;5.53;;;1.77;;
13847;SDS011;6994;49.752;6.094;2023-11-19T13:15:29;7.07;;;1.60;;
13847;SDS011;6994;49.752;6.094;2023-11-19T13:17:56;5.07;;;1.20;;
13847;SDS011;6994;49.752;6.094;2023-11-19T13:20:23;6.25;;;1.45;;
13847;SDS011;6994;49.752;6.094;2023-11-19T13:22:54;10.00;;;2.67;;
13847;SDS011;6994;49.752;6.094;2023-11-19T13:25:21;5.15;;;2.17;;
13847;SDS011;6994;49.752;6.094;2023-11-19T13:27:48;11.75;;;2.37;;
13847;SDS011;6994;49.752;6.094;2023-11-19T13:30:15;6.60;;;1.50;;
13847;SDS011;6994;49.752;6.094;2023-11-19T13:32:43;5.10;;;1.58;;
13847;SDS011;6994;49.752;6.094;2023-11-19T13:35:10;8.30;;;1.85;;
13847;SDS011;6994;49.752;6.094;2023-11-19T13:37:37;10.30;;;1.87;;
13847;SDS011;6994;49.752;6.094;2023-11-19T13:40:05;7.18;;;1.73;;
13847;SDS011;6994;49.752;6.094;2023-11-19T13:42:32;3.92;;;1.37;;
13847;SDS011;6994;49.752;6.094;2023-11-19T13:44:59;7.47;;;1.60;;
13847;SDS011;6994;49.752;6.094;2023-11-19T13:47:26;7.50;;;1.65;;
13847;SDS011;6994;49.752;6.094;2023-11-19T13:49:53;12.73;;;2.40;;
13847;SDS011;6994;49.752;6.094;2023-11-19T13:52:21;8.55;;;1.55;;
13847;SDS011;6994;49.752;6.094;2023-11-19T13:54:48;5.25;;;1.20;;
13847;SDS011;6994;49.752;6.094;2023-11-19T13:57:16;8.70;;;1.95;;
13847;SDS011;6994;49.752;6.094;2023-11-19T13:59:43;4.45;;;1.20;;
13847;SDS011;6994;49.752;6.094;2023-11-19T14:02:10;7.57;;;2.35;;
13847;SDS011;6994;49.752;6.094;2023-11-19T14:04:37;7.75;;;1.87;;
13847;SDS011;6994;49.752;6.094;2023-11-19T14:07:04;4.90;;;1.58;;
13847;SDS011;6994;49.752;6.094;2023-11-19T14:09:32;9.95;;;1.75;;
13847;SDS011;6994;49.752;6.094;2023-11-19T14:11:59;12.73;;;2.72;;
13847;SDS011;6994;49.752;6.094;2023-11-19T14:14:26;10.35;;;2.03;;
13847;SDS011;6994;49.752;6.094;2023-11-19T14:16:54;8.90;;;2.10;;
13847;SDS011;6994;49.752;6.094;2023-11-19T14:19:22;9.80;;;2.05;;
13847;SDS011;6994;49.752;6.094;2023-11-19T14:21:50;2.70;;;1.15;;
13847;SDS011;6994;49.752;6.094;2023-11-19T14:24:17;6.30;;;1.83;;
13847;SDS011;6994;49.752;6.094;2023-11-19T14:26:45;9.23;;;2.12;;
13847;SDS011;6994;49.752;6.094;2023-11-19T14:29:12;5.43;;;1.27;;
13847;SDS011;6994;49.752;6.094;2023-11-19T14:31:39;5.22;;;1.67;;
13847;SDS011;6994;49.752;6.094;2023-11-19T14:34:06;6.57;;;1.52;;
13847;SDS011;6994;49.752;6.094;2023-11-19T14:36:33;8.40;;;3.22;;
13847;SDS011;6994;49.752;6.094;2023-11-19T14:39:00;10.98;;;2.20;;
13847;SDS011;6994;49.752;6.094;2023-11-19T14:41:28;8.10;;;1.83;;
13847;SDS011;6994;49.752;6.094;2023-11-19T14:43:55;11.57;;;2.55;;
13847;SDS011;6994;49.752;6.094;2023-11-19T14:46:22;8.63;;;1.95;;
13847;SDS011;6994;49.752;6.094;2023-11-19T14:48:49;9.45;;;2.65;;
13847;SDS011;6994;49.752;6.094;2023-11-19T14:51:17;9.60;;;2.25;;
13847;SDS011;6994;49.752;6.094;2023-11-19T14:53:45;9.50;;;1.87;;
13847;SDS011;6994;49.752;6.094;2023-11-19T14:56:12;8.60;;;1.80;;
13847;SDS011;6994;49.752;6.094;2023-11-19T14:58:40;14.07;;;2.22;;
13847;SDS011;6994;49.752;6.094;2023-11-19T15:01:11;8.15;;;2.20;;
13847;SDS011;6994;49.752;6.094;2023-11-19T15:03:34;5.05;;;1.62;;
13847;SDS011;6994;49.752;6.094;2023-11-19T15:06:01;10.98;;;2.65;;
13847;SDS011;6994;49.752;6.094;2023-11-19T15:08:28;8.95;;;1.87;;